sensor_id;sensor_type;location;lat;lon;timestamp;P1;durP1;ratioP1;P2;durP2;ratioP2
77888;SDS011;67082;41.704;44.768;2023-05-10T00:01:52;4.32;;;2.30;;
77888;SDS011;67082;41.704;44.768;2023-05-10T00:04:21;5.50;;;2.03;;
77888;SDS011;67082;41.704;44.768;2023-05-10T00:06:49;4.65;;;1.98;;
77888;SDS011;67082;41.704;44.768;2023-05-10T00:09:18;5.88;;;2.10;;
77888;SDS011;67082;41.704;44.768;2023-05-10T00:11:46;5.05;;;2.00;;
77888;SDS011;67082;41.704;44.768;2023-05-10T00:14:14;4.30;;;2.30;;
77888;SDS011;67082;41.704;44.768;2023-05-10T00:16:42;5.55;;;2.35;;
77888;SDS011;67082;41.704;44.768;2023-05-10T00:19:11;3.53;;;2.10;;
77888;SDS011;67082;41.704;44.768;2023-05-10T00:21:39;4.10;;;2.38;;
77888;SDS011;67082;41.704;44.768;2023-05-10T00:24:07;4.30;;;2.10;;
77888;SDS011;67082;41.704;44.768;2023-05-10T00:26:35;5.93;;;2.40;;
77888;SDS011;67082;41.704;44.768;2023-05-10T00:29:04;6.57;;;2.17;;
77888;SDS011;67082;41.704;44.768;2023-05-10T00:31:32;4.22;;;2.33;;
77888;SDS011;67082;41.704;44.768;2023-05-10T00:34:00;4.22;;;2.03;;
77888;SDS011;67082;41.704;44.768;2023-05-10T00:36:29;5.00;;;2.08;;
77888;SDS011;67082;41.704;44.768;2023-05-10T00:38:58;4.32;;;2.30;;
77888;SDS011;67082;41.704;44.768;2023-05-10T00:41:27;3.17;;;2.25;;
77888;SDS011;67082;41.704;44.768;2023-05-10T00:43:56;8.20;;;2.75;;
77888;SDS011;67082;41.704;44.768;2023-05-10T00:46:25;8.50;;;2.58;;
77888;SDS011;67082;41.704;44.768;2023-05-10T00:48:53;4.80;;;2.40;;
77888;SDS011;67082;41.704;44.768;2023-05-10T00:51:23;3.47;;;2.00;;
77888;SDS011;67082;41.704;44.768;2023-05-10T00:53:51;3.75;;;1.83;;
77888;SDS011;67082;41.704;44.768;2023-05-10T00:56:19;4.13;;;2.20;;
77888;SDS011;67082;41.704;44.768;2023-05-10T00:58:51;5.15;;;2.33;;
77888;SDS011;67082;41.704;44.768;2023-05-10T01:01:21;5.07;;;1.98;;
77888;SDS011;67082;41.704;44.768;2023-05-10T01:03:51;3.58;;;2.00;;
77888;SDS011;67082;41.704;44.768;2023-05-10T01:06:19;3.63;;;2.25;;
77888;SDS011;67082;41.704;44.768;2023-05-10T01:08:48;4.65;;;2.40;;
77888;SDS011;67082;41.704;44.768;2023-05-10T01:11:17;6.45;;;2.30;;
77888;SDS011;67082;41.704;44.768;2023-05-10T01:13:47;6.05;;;2.40;;
77888;SDS011;67082;41.704;44.768;2023-05-10T01:16:22;4.90;;;2.38;;
77888;SDS011;67082;41.704;44.768;2023-05-10T01:18:53;4.38;;;2.42;;
77888;SDS011;67082;41.704;44.768;2023-05-10T01:21:29;4.50;;;2.08;;
77888;SDS011;67082;41.704;44.768;2023-05-10T01:32:16;6.82;;;2.38;;
77888;SDS011;67082;41.704;44.768;2023-05-10T01:34:54;4.50;;;2.40;;
77888;SDS011;67082;41.704;44.768;2023-05-10T01:37:32;4.45;;;2.17;;
77888;SDS011;67082;41.704;44.768;2023-05-10T01:40:09;4.13;;;2.25;;
77888;SDS011;67082;41.704;44.768;2023-05-10T01:42:48;4.93;;;2.15;;
77888;SDS011;67082;41.704;44.768;2023-05-10T01:45:24;3.72;;;2.40;;
77888;SDS011;67082;41.704;44.768;2023-05-10T01:48:09;4.40;;;2.70;;
77888;SDS011;67082;41.704;44.768;2023-05-10T01:50:41;5.10;;;2.50;;
77888;SDS011;67082;41.704;44.768;2023-05-10T01:53:11;5.70;;;2.42;;
77888;SDS011;67082;41.704;44.768;2023-05-10T01:55:49;7.82;;;2.65;;
77888;SDS011;67082;41.704;44.768;2023-05-10T01:58:31;5.80;;;2.40;;
77888;SDS011;67082;41.704;44.768;2023-05-10T02:01:02;5.95;;;2.60;;
77888;SDS011;67082;41.704;44.768;2023-05-10T02:03:32;4.90;;;2.30;;
77888;SDS011;67082;41.704;44.768;2023-05-10T02:06:04;5.68;;;2.28;;
77888;SDS011;67082;41.704;44.768;2023-05-10T02:08:35;4.88;;;2.55;;
77888;SDS011;67082;41.704;44.768;2023-05-10T02:11:06;3.40;;;2.20;;
77888;SDS011;67082;41.704;44.768;2023-05-10T02:13:35;5.72;;;2.17;;
77888;SDS011;67082;41.704;44.768;2023-05-10T02:16:07;3.90;;;2.30;;
77888;SDS011;67082;41.704;44.768;2023-05-10T02:18:35;3.28;;;2.22;;
77888;SDS011;67082;41.704;44.768;2023-05-10T02:21:08;5.07;;;2.50;;
77888;SDS011;67082;41.704;44.768;2023-05-10T02:23:39;3.63;;;2.35;;
77888;SDS011;67082;41.704;44.768;2023-05-10T02:26:08;4.90;;;2.25;;
77888;SDS011;67082;41.704;44.768;2023-05-10T02:28:38;7.50;;;2.90;;
77888;SDS011;67082;41.704;44.768;2023-05-10T02:31:08;4.40;;;2.53;;
77888;SDS011;67082;41.704;44.768;2023-05-10T02:33:41;6.50;;;2.42;;
77888;SDS011;67082;41.704;44.768;2023-05-10T02:36:12;5.03;;;2.20;;
77888;SDS011;67082;41.704;44.768;2023-05-10T02:38:41;4.53;;;2.17;;
77888;SDS011;67082;41.704;44.768;2023-05-10T02:41:11;3.97;;;2.50;;
77888;SDS011;67082;41.704;44.768;2023-05-10T02:43:41;7.13;;;2.53;;
77888;SDS011;67082;41.704;44.768;2023-05-10T02:46:11;5.45;;;2.67;;
77888;SDS011;67082;41.704;44.768;2023-05-10T02:48:39;5.38;;;2.33;;
77888;SDS011;67082;41.704;44.768;2023-05-10T02:51:07;7.30;;;2.70;;
77888;SDS011;67082;41.704;44.768;2023-05-10T02:53:38;4.15;;;2.42;;
77888;SDS011;67082;41.704;44.768;2023-05-10T02:56:15;4.53;;;2.50;;
77888;SDS011;67082;41.704;44.768;2023-05-10T02:59:01;4.97;;;2.50;;
77888;SDS011;67082;41.704;44.768;2023-05-10T03:01:30;4.20;;;2.35;;
77888;SDS011;67082;41.704;44.768;2023-05-10T03:03:58;4.25;;;2.40;;
77888;SDS011;67082;41.704;44.768;2023-05-10T03:06:26;5.82;;;2.40;;
77888;SDS011;67082;41.704;44.768;2023-05-10T03:08:56;5.15;;;2.30;;
77888;SDS011;67082;41.704;44.768;2023-05-10T03:11:32;4.82;;;2.40;;
77888;SDS011;67082;41.704;44.768;2023-05-10T03:14:16;6.00;;;2.58;;
77888;SDS011;67082;41.704;44.768;2023-05-10T03:17:08;6.20;;;2.75;;
77888;SDS011;67082;41.704;44.768;2023-05-10T03:20:29;4.07;;;2.50;;
77888;SDS011;67082;41.704;44.768;2023-05-10T03:22:47;4.45;;;2.20;;
77888;SDS011;67082;41.704;44.768;2023-05-10T03:25:21;6.03;;;2.45;;
77888;SDS011;67082;41.704;44.768;2023-05-10T03:27:52;4.55;;;2.30;;
77888;SDS011;67082;41.704;44.768;2023-05-10T03:30:22;3.80;;;2.10;;
77888;SDS011;67082;41.704;44.768;2023-05-10T03:32:52;4.25;;;2.10;;
77888;SDS011;67082;41.704;44.768;2023-05-10T03:35:20;4.55;;;2.38;;
77888;SDS011;67082;41.704;44.768;2023-05-10T03:37:49;4.25;;;2.00;;
77888;SDS011;67082;41.704;44.768;2023-05-10T03:40:17;3.08;;;2.05;;
77888;SDS011;67082;41.704;44.768;2023-05-10T03:42:46;3.83;;;1.98;;
77888;SDS011;67082;41.704;44.768;2023-05-10T03:45:14;5.55;;;2.30;;
77888;SDS011;67082;41.704;44.768;2023-05-10T03:47:43;5.13;;;2.33;;
77888;SDS011;67082;41.704;44.768;2023-05-10T03:50:12;7.22;;;2.50;;
77888;SDS011;67082;41.704;44.768;2023-05-10T03:52:41;4.68;;;2.40;;
77888;SDS011;67082;41.704;44.768;2023-05-10T03:55:10;10.18;;;2.85;;
77888;SDS011;67082;41.704;44.768;2023-05-10T03:57:38;6.38;;;2.70;;
77888;SDS011;67082;41.704;44.768;2023-05-10T04:00:07;8.27;;;2.80;;
77888;SDS011;67082;41.704;44.768;2023-05-10T04:02:42;6.90;;;3.05;;
77888;SDS011;67082;41.704;44.768;2023-05-10T04:05:17;6.70;;;2.92;;
77888;SDS011;67082;41.704;44.768;2023-05-10T04:07:45;5.35;;;2.83;;
77888;SDS011;67082;41.704;44.768;2023-05-10T04:10:14;5.68;;;2.80;;
77888;SDS011;67082;41.704;44.768;2023-05-10T04:12:46;7.53;;;2.85;;
77888;SDS011;67082;41.704;44.768;2023-05-10T04:15:14;4.65;;;2.92;;
77888;SDS011;67082;41.704;44.768;2023-05-10T04:17:44;6.80;;;2.83;;
77888;SDS011;67082;41.704;44.768;2023-05-10T04:20:13;4.40;;;2.20;;
77888;SDS011;67082;41.704;44.768;2023-05-10T04:22:43;9.75;;;2.90;;
77888;SDS011;67082;41.704;44.768;2023-05-10T04:25:11;6.07;;;2.63;;
77888;SDS011;67082;41.704;44.768;2023-05-10T04:27:39;6.40;;;2.90;;
77888;SDS011;67082;41.704;44.768;2023-05-10T04:30:07;4.88;;;2.28;;
77888;SDS011;67082;41.704;44.768;2023-05-10T04:32:37;4.85;;;2.60;;
77888;SDS011;67082;41.704;44.768;2023-05-10T04:35:05;4.55;;;2.40;;
77888;SDS011;67082;41.704;44.768;2023-05-10T04:37:34;3.22;;;2.00;;
77888;SDS011;67082;41.704;44.768;2023-05-10T04:40:02;4.72;;;2.40;;
77888;SDS011;67082;41.704;44.768;2023-05-10T04:42:32;5.25;;;2.15;;
77888;SDS011;67082;41.704;44.768;2023-05-10T04:45:00;3.10;;;2.10;;
77888;SDS011;67082;41.704;44.768;2023-05-10T04:47:30;11.63;;;2.28;;
77888;SDS011;67082;41.704;44.768;2023-05-10T04:49:58;4.97;;;2.60;;
77888;SDS011;67082;41.704;44.768;2023-05-10T04:52:30;3.88;;;2.58;;
77888;SDS011;67082;41.704;44.768;2023-05-10T04:54:58;4.97;;;2.60;;
77888;SDS011;67082;41.704;44.768;2023-05-10T04:57:27;4.82;;;2.63;;
77888;SDS011;67082;41.704;44.768;2023-05-10T04:59:54;5.95;;;2.40;;
77888;SDS011;67082;41.704;44.768;2023-05-10T05:02:23;6.28;;;2.25;;
77888;SDS011;67082;41.704;44.768;2023-05-10T05:04:51;6.22;;;2.35;;
77888;SDS011;67082;41.704;44.768;2023-05-10T05:07:21;7.60;;;2.47;;
77888;SDS011;67082;41.704;44.768;2023-05-10T05:09:50;7.35;;;2.10;;
77888;SDS011;67082;41.704;44.768;2023-05-10T05:12:18;5.28;;;2.20;;
77888;SDS011;67082;41.704;44.768;2023-05-10T05:14:46;6.78;;;2.65;;
77888;SDS011;67082;41.704;44.768;2023-05-10T05:17:15;5.60;;;2.50;;
77888;SDS011;67082;41.704;44.768;2023-05-10T05:19:43;6.60;;;2.50;;
77888;SDS011;67082;41.704;44.768;2023-05-10T05:22:11;5.30;;;2.22;;
77888;SDS011;67082;41.704;44.768;2023-05-10T05:24:39;6.07;;;2.53;;
77888;SDS011;67082;41.704;44.768;2023-05-10T05:27:07;6.32;;;2.40;;
77888;SDS011;67082;41.704;44.768;2023-05-10T05:29:35;5.75;;;2.40;;
77888;SDS011;67082;41.704;44.768;2023-05-10T05:32:04;6.25;;;2.50;;
77888;SDS011;67082;41.704;44.768;2023-05-10T05:34:33;8.55;;;2.75;;
77888;SDS011;67082;41.704;44.768;2023-05-10T05:37:01;5.55;;;2.50;;
77888;SDS011;67082;41.704;44.768;2023-05-10T05:39:30;8.23;;;2.90;;
77888;SDS011;67082;41.704;44.768;2023-05-10T05:41:58;7.68;;;2.28;;
77888;SDS011;67082;41.704;44.768;2023-05-10T05:44:26;4.75;;;2.35;;
77888;SDS011;67082;41.704;44.768;2023-05-10T05:46:56;6.15;;;2.13;;
77888;SDS011;67082;41.704;44.768;2023-05-10T05:49:24;3.88;;;2.25;;
77888;SDS011;67082;41.704;44.768;2023-05-10T05:51:53;5.32;;;2.10;;
77888;SDS011;67082;41.704;44.768;2023-05-10T05:54:20;8.25;;;2.58;;
77888;SDS011;67082;41.704;44.768;2023-05-10T05:56:49;4.07;;;1.83;;
77888;SDS011;67082;41.704;44.768;2023-05-10T05:59:17;4.38;;;1.90;;
77888;SDS011;67082;41.704;44.768;2023-05-10T06:01:45;4.57;;;2.30;;
77888;SDS011;67082;41.704;44.768;2023-05-10T06:04:13;5.00;;;2.00;;
77888;SDS011;67082;41.704;44.768;2023-05-10T06:06:41;7.85;;;2.40;;
77888;SDS011;67082;41.704;44.768;2023-05-10T06:09:09;5.90;;;2.30;;
77888;SDS011;67082;41.704;44.768;2023-05-10T06:11:38;4.43;;;2.13;;
77888;SDS011;67082;41.704;44.768;2023-05-10T06:14:06;6.78;;;2.55;;
77888;SDS011;67082;41.704;44.768;2023-05-10T06:16:35;6.53;;;2.15;;
77888;SDS011;67082;41.704;44.768;2023-05-10T06:19:03;4.75;;;2.08;;
77888;SDS011;67082;41.704;44.768;2023-05-10T06:21:32;6.85;;;2.47;;
77888;SDS011;67082;41.704;44.768;2023-05-10T06:24:00;4.82;;;2.22;;
77888;SDS011;67082;41.704;44.768;2023-05-10T06:26:28;6.93;;;2.50;;
77888;SDS011;67082;41.704;44.768;2023-05-10T06:28:56;7.88;;;2.67;;
77888;SDS011;67082;41.704;44.768;2023-05-10T06:31:24;7.28;;;2.70;;
77888;SDS011;67082;41.704;44.768;2023-05-10T06:33:52;5.10;;;2.97;;
77888;SDS011;67082;41.704;44.768;2023-05-10T06:36:23;5.85;;;2.55;;
77888;SDS011;67082;41.704;44.768;2023-05-10T06:38:54;5.20;;;2.47;;
77888;SDS011;67082;41.704;44.768;2023-05-10T06:41:23;3.70;;;2.58;;
77888;SDS011;67082;41.704;44.768;2023-05-10T06:43:51;7.47;;;3.03;;
77888;SDS011;67082;41.704;44.768;2023-05-10T06:46:19;10.23;;;3.80;;
77888;SDS011;67082;41.704;44.768;2023-05-10T06:48:47;8.50;;;3.00;;
77888;SDS011;67082;41.704;44.768;2023-05-10T06:51:15;5.22;;;2.60;;
77888;SDS011;67082;41.704;44.768;2023-05-10T06:53:43;7.32;;;2.70;;
77888;SDS011;67082;41.704;44.768;2023-05-10T06:56:12;5.65;;;2.60;;
77888;SDS011;67082;41.704;44.768;2023-05-10T06:58:39;4.82;;;2.55;;
77888;SDS011;67082;41.704;44.768;2023-05-10T07:01:09;5.53;;;2.95;;
77888;SDS011;67082;41.704;44.768;2023-05-10T07:03:37;8.43;;;2.83;;
77888;SDS011;67082;41.704;44.768;2023-05-10T07:06:05;7.60;;;2.67;;
77888;SDS011;67082;41.704;44.768;2023-05-10T07:08:48;4.15;;;2.65;;
77888;SDS011;67082;41.704;44.768;2023-05-10T07:11:16;5.35;;;2.50;;
77888;SDS011;67082;41.704;44.768;2023-05-10T07:13:44;4.65;;;2.80;;
77888;SDS011;67082;41.704;44.768;2023-05-10T07:16:15;7.03;;;2.85;;
77888;SDS011;67082;41.704;44.768;2023-05-10T07:18:43;6.80;;;3.30;;
77888;SDS011;67082;41.704;44.768;2023-05-10T07:21:11;5.22;;;2.83;;
77888;SDS011;67082;41.704;44.768;2023-05-10T07:23:39;5.47;;;3.00;;
77888;SDS011;67082;41.704;44.768;2023-05-10T07:26:11;8.43;;;2.90;;
77888;SDS011;67082;41.704;44.768;2023-05-10T07:28:40;7.70;;;2.75;;
77888;SDS011;67082;41.704;44.768;2023-05-10T07:31:08;6.07;;;3.28;;
77888;SDS011;67082;41.704;44.768;2023-05-10T07:33:36;6.65;;;2.75;;
77888;SDS011;67082;41.704;44.768;2023-05-10T07:36:06;8.50;;;3.22;;
77888;SDS011;67082;41.704;44.768;2023-05-10T07:38:34;5.95;;;2.85;;
77888;SDS011;67082;41.704;44.768;2023-05-10T07:41:05;6.80;;;3.20;;
77888;SDS011;67082;41.704;44.768;2023-05-10T07:43:33;7.80;;;3.20;;
77888;SDS011;67082;41.704;44.768;2023-05-10T07:46:01;7.32;;;3.33;;
77888;SDS011;67082;41.704;44.768;2023-05-10T07:48:30;9.57;;;3.30;;
77888;SDS011;67082;41.704;44.768;2023-05-10T07:50:59;7.90;;;3.50;;
77888;SDS011;67082;41.704;44.768;2023-05-10T07:53:27;5.57;;;3.22;;
77888;SDS011;67082;41.704;44.768;2023-05-10T07:55:59;7.85;;;3.08;;
77888;SDS011;67082;41.704;44.768;2023-05-10T07:58:28;7.85;;;3.08;;
77888;SDS011;67082;41.704;44.768;2023-05-10T08:00:57;8.48;;;3.20;;
77888;SDS011;67082;41.704;44.768;2023-05-10T08:03:25;7.82;;;3.47;;
77888;SDS011;67082;41.704;44.768;2023-05-10T08:05:54;8.77;;;3.55;;
77888;SDS011;67082;41.704;44.768;2023-05-10T08:08:22;6.65;;;3.50;;
77888;SDS011;67082;41.704;44.768;2023-05-10T08:10:51;9.48;;;3.80;;
77888;SDS011;67082;41.704;44.768;2023-05-10T08:13:19;7.38;;;4.20;;
77888;SDS011;67082;41.704;44.768;2023-05-10T08:15:49;10.52;;;4.07;;
77888;SDS011;67082;41.704;44.768;2023-05-10T08:18:23;10.18;;;3.92;;
77888;SDS011;67082;41.704;44.768;2023-05-10T08:20:52;9.73;;;4.45;;
77888;SDS011;67082;41.704;44.768;2023-05-10T08:23:20;7.95;;;4.15;;
77888;SDS011;67082;41.704;44.768;2023-05-10T08:25:48;14.68;;;3.90;;
77888;SDS011;67082;41.704;44.768;2023-05-10T08:28:17;8.30;;;4.05;;
77888;SDS011;67082;41.704;44.768;2023-05-10T08:30:46;7.57;;;4.40;;
77888;SDS011;67082;41.704;44.768;2023-05-10T08:33:13;10.10;;;4.28;;
77888;SDS011;67082;41.704;44.768;2023-05-10T08:35:42;9.60;;;4.07;;
77888;SDS011;67082;41.704;44.768;2023-05-10T08:38:10;11.10;;;4.40;;
77888;SDS011;67082;41.704;44.768;2023-05-10T08:40:39;8.13;;;3.65;;
77888;SDS011;67082;41.704;44.768;2023-05-10T08:43:10;9.57;;;4.03;;
77888;SDS011;67082;41.704;44.768;2023-05-10T08:45:42;14.88;;;5.10;;
77888;SDS011;67082;41.704;44.768;2023-05-10T08:48:14;11.75;;;4.15;;
77888;SDS011;67082;41.704;44.768;2023-05-10T08:50:44;9.55;;;4.63;;
77888;SDS011;67082;41.704;44.768;2023-05-10T08:53:14;12.35;;;5.28;;
77888;SDS011;67082;41.704;44.768;2023-05-10T08:55:44;9.60;;;4.85;;
77888;SDS011;67082;41.704;44.768;2023-05-10T08:58:14;10.35;;;5.00;;
77888;SDS011;67082;41.704;44.768;2023-05-10T09:00:43;8.40;;;4.43;;
77888;SDS011;67082;41.704;44.768;2023-05-10T09:03:11;12.18;;;5.00;;
77888;SDS011;67082;41.704;44.768;2023-05-10T09:05:41;8.18;;;4.68;;
77888;SDS011;67082;41.704;44.768;2023-05-10T09:08:11;8.30;;;4.13;;
77888;SDS011;67082;41.704;44.768;2023-05-10T09:10:40;8.02;;;4.68;;
77888;SDS011;67082;41.704;44.768;2023-05-10T09:13:11;7.68;;;4.20;;
77888;SDS011;67082;41.704;44.768;2023-05-10T09:15:41;9.05;;;4.13;;
77888;SDS011;67082;41.704;44.768;2023-05-10T09:18:12;9.13;;;4.00;;
77888;SDS011;67082;41.704;44.768;2023-05-10T09:20:42;6.55;;;3.95;;
77888;SDS011;67082;41.704;44.768;2023-05-10T09:23:10;7.10;;;3.67;;
77888;SDS011;67082;41.704;44.768;2023-05-10T09:25:38;7.20;;;4.20;;
77888;SDS011;67082;41.704;44.768;2023-05-10T09:28:09;16.45;;;4.47;;
77888;SDS011;67082;41.704;44.768;2023-05-10T09:30:40;7.20;;;3.78;;
77888;SDS011;67082;41.704;44.768;2023-05-10T09:33:10;7.53;;;3.72;;
77888;SDS011;67082;41.704;44.768;2023-05-10T09:35:39;10.75;;;4.47;;
77888;SDS011;67082;41.704;44.768;2023-05-10T09:38:07;12.40;;;4.30;;
77888;SDS011;67082;41.704;44.768;2023-05-10T09:40:36;6.93;;;4.00;;
77888;SDS011;67082;41.704;44.768;2023-05-10T09:43:08;9.90;;;4.32;;
77888;SDS011;67082;41.704;44.768;2023-05-10T09:45:42;9.60;;;4.35;;
77888;SDS011;67082;41.704;44.768;2023-05-10T09:48:10;6.82;;;3.95;;
77888;SDS011;67082;41.704;44.768;2023-05-10T09:50:41;11.30;;;4.80;;
77888;SDS011;67082;41.704;44.768;2023-05-10T09:53:09;8.43;;;3.97;;
77888;SDS011;67082;41.704;44.768;2023-05-10T09:55:46;9.73;;;3.53;;
77888;SDS011;67082;41.704;44.768;2023-05-10T09:58:16;7.32;;;3.90;;
77888;SDS011;67082;41.704;44.768;2023-05-10T10:00:45;8.13;;;4.00;;
77888;SDS011;67082;41.704;44.768;2023-05-10T10:03:20;6.60;;;3.97;;
77888;SDS011;67082;41.704;44.768;2023-05-10T10:05:49;10.15;;;4.55;;
77888;SDS011;67082;41.704;44.768;2023-05-10T10:08:17;9.52;;;4.40;;
77888;SDS011;67082;41.704;44.768;2023-05-10T10:10:45;15.55;;;4.18;;
77888;SDS011;67082;41.704;44.768;2023-05-10T10:13:14;10.13;;;4.00;;
77888;SDS011;67082;41.704;44.768;2023-05-10T10:15:45;11.98;;;4.45;;
77888;SDS011;67082;41.704;44.768;2023-05-10T10:18:18;6.75;;;3.75;;
77888;SDS011;67082;41.704;44.768;2023-05-10T10:20:51;12.63;;;3.92;;
77888;SDS011;67082;41.704;44.768;2023-05-10T10:23:21;8.32;;;3.95;;
77888;SDS011;67082;41.704;44.768;2023-05-10T10:25:50;7.68;;;3.95;;
77888;SDS011;67082;41.704;44.768;2023-05-10T10:28:29;8.45;;;4.03;;
77888;SDS011;67082;41.704;44.768;2023-05-10T10:32:05;9.60;;;3.70;;
77888;SDS011;67082;41.704;44.768;2023-05-10T10:34:27;6.85;;;3.50;;
77888;SDS011;67082;41.704;44.768;2023-05-10T10:36:57;6.75;;;3.17;;
77888;SDS011;67082;41.704;44.768;2023-05-10T10:39:32;7.85;;;3.13;;
77888;SDS011;67082;41.704;44.768;2023-05-10T10:42:06;6.07;;;3.10;;
77888;SDS011;67082;41.704;44.768;2023-05-10T10:44:35;7.93;;;3.30;;
77888;SDS011;67082;41.704;44.768;2023-05-10T10:49:52;8.02;;;3.00;;
77888;SDS011;67082;41.704;44.768;2023-05-10T10:52:31;7.70;;;2.80;;
77888;SDS011;67082;41.704;44.768;2023-05-10T10:55:12;6.88;;;3.40;;
77888;SDS011;67082;41.704;44.768;2023-05-10T10:57:52;6.38;;;3.08;;
77888;SDS011;67082;41.704;44.768;2023-05-10T11:00:29;6.38;;;2.78;;
77888;SDS011;67082;41.704;44.768;2023-05-10T11:03:05;7.22;;;2.90;;
77888;SDS011;67082;41.704;44.768;2023-05-10T11:08:12;7.80;;;3.25;;
77888;SDS011;67082;41.704;44.768;2023-05-10T11:10:49;7.32;;;3.05;;
77888;SDS011;67082;41.704;44.768;2023-05-10T11:16:18;9.90;;;3.63;;
77888;SDS011;67082;41.704;44.768;2023-05-10T11:18:59;8.93;;;3.10;;
77888;SDS011;67082;41.704;44.768;2023-05-10T11:21:44;7.35;;;2.70;;
77888;SDS011;67082;41.704;44.768;2023-05-10T11:24:21;6.28;;;2.83;;
77888;SDS011;67082;41.704;44.768;2023-05-10T11:26:50;5.68;;;2.78;;
77888;SDS011;67082;41.704;44.768;2023-05-10T11:29:19;6.20;;;2.92;;
77888;SDS011;67082;41.704;44.768;2023-05-10T11:31:48;5.57;;;2.70;;
77888;SDS011;67082;41.704;44.768;2023-05-10T11:34:24;8.77;;;3.25;;
77888;SDS011;67082;41.704;44.768;2023-05-10T11:36:54;9.10;;;3.17;;
77888;SDS011;67082;41.704;44.768;2023-05-10T11:39:27;5.65;;;3.30;;
77888;SDS011;67082;41.704;44.768;2023-05-10T11:41:56;6.75;;;2.95;;
77888;SDS011;67082;41.704;44.768;2023-05-10T11:44:29;7.10;;;3.05;;
77888;SDS011;67082;41.704;44.768;2023-05-10T11:46:59;5.75;;;3.03;;
77888;SDS011;67082;41.704;44.768;2023-05-10T11:49:28;11.15;;;3.03;;
77888;SDS011;67082;41.704;44.768;2023-05-10T11:52:06;7.32;;;2.70;;
77888;SDS011;67082;41.704;44.768;2023-05-10T11:54:36;10.48;;;2.75;;
77888;SDS011;67082;41.704;44.768;2023-05-10T11:57:04;6.50;;;2.72;;
77888;SDS011;67082;41.704;44.768;2023-05-10T11:59:32;6.88;;;2.55;;
77888;SDS011;67082;41.704;44.768;2023-05-10T12:02:00;5.53;;;2.60;;
77888;SDS011;67082;41.704;44.768;2023-05-10T12:04:29;5.75;;;2.75;;
77888;SDS011;67082;41.704;44.768;2023-05-10T12:06:58;6.53;;;2.60;;
77888;SDS011;67082;41.704;44.768;2023-05-10T12:09:26;6.72;;;2.40;;
77888;SDS011;67082;41.704;44.768;2023-05-10T12:12:09;7.20;;;2.85;;
77888;SDS011;67082;41.704;44.768;2023-05-10T12:14:43;8.90;;;2.40;;
77888;SDS011;67082;41.704;44.768;2023-05-10T12:17:11;4.93;;;2.45;;
77888;SDS011;67082;41.704;44.768;2023-05-10T12:19:40;7.10;;;2.63;;
77888;SDS011;67082;41.704;44.768;2023-05-10T12:22:08;7.90;;;2.60;;
77888;SDS011;67082;41.704;44.768;2023-05-10T12:24:37;5.78;;;2.55;;
77888;SDS011;67082;41.704;44.768;2023-05-10T12:27:08;6.30;;;2.53;;
77888;SDS011;67082;41.704;44.768;2023-05-10T12:29:36;6.18;;;2.47;;
77888;SDS011;67082;41.704;44.768;2023-05-10T12:32:11;4.88;;;2.58;;
77888;SDS011;67082;41.704;44.768;2023-05-10T12:34:40;8.50;;;2.80;;
77888;SDS011;67082;41.704;44.768;2023-05-10T12:37:08;4.45;;;2.63;;
77888;SDS011;67082;41.704;44.768;2023-05-10T12:39:40;7.43;;;3.15;;
77888;SDS011;67082;41.704;44.768;2023-05-10T12:42:10;5.40;;;2.67;;
77888;SDS011;67082;41.704;44.768;2023-05-10T12:44:39;7.85;;;2.63;;
77888;SDS011;67082;41.704;44.768;2023-05-10T12:47:07;7.43;;;2.65;;
77888;SDS011;67082;41.704;44.768;2023-05-10T12:49:35;5.90;;;2.80;;
77888;SDS011;67082;41.704;44.768;2023-05-10T12:52:03;7.70;;;2.90;;
77888;SDS011;67082;41.704;44.768;2023-05-10T12:54:31;9.88;;;2.65;;
77888;SDS011;67082;41.704;44.768;2023-05-10T12:56:59;9.70;;;3.65;;
77888;SDS011;67082;41.704;44.768;2023-05-10T12:59:27;7.03;;;2.70;;
77888;SDS011;67082;41.704;44.768;2023-05-10T13:01:56;9.77;;;2.72;;
77888;SDS011;67082;41.704;44.768;2023-05-10T13:04:25;9.48;;;2.72;;
77888;SDS011;67082;41.704;44.768;2023-05-10T13:06:53;6.07;;;3.00;;
77888;SDS011;67082;41.704;44.768;2023-05-10T13:09:23;7.95;;;2.78;;
77888;SDS011;67082;41.704;44.768;2023-05-10T13:11:52;6.25;;;2.50;;
77888;SDS011;67082;41.704;44.768;2023-05-10T13:14:23;4.85;;;2.90;;
77888;SDS011;67082;41.704;44.768;2023-05-10T13:16:52;7.45;;;2.80;;
77888;SDS011;67082;41.704;44.768;2023-05-10T13:19:21;6.22;;;2.63;;
77888;SDS011;67082;41.704;44.768;2023-05-10T13:21:50;9.77;;;3.55;;
77888;SDS011;67082;41.704;44.768;2023-05-10T13:24:18;8.23;;;2.78;;
77888;SDS011;67082;41.704;44.768;2023-05-10T13:26:46;9.75;;;2.75;;
77888;SDS011;67082;41.704;44.768;2023-05-10T13:29:14;4.68;;;2.33;;
77888;SDS011;67082;41.704;44.768;2023-05-10T13:31:45;6.95;;;2.88;;
77888;SDS011;67082;41.704;44.768;2023-05-10T13:34:13;6.32;;;3.15;;
77888;SDS011;67082;41.704;44.768;2023-05-10T13:36:41;6.28;;;2.55;;
77888;SDS011;67082;41.704;44.768;2023-05-10T13:39:10;10.10;;;2.80;;
77888;SDS011;67082;41.704;44.768;2023-05-10T13:41:38;6.72;;;2.67;;
77888;SDS011;67082;41.704;44.768;2023-05-10T13:44:06;8.63;;;2.90;;
77888;SDS011;67082;41.704;44.768;2023-05-10T13:46:34;7.00;;;2.85;;
77888;SDS011;67082;41.704;44.768;2023-05-10T13:49:03;6.28;;;3.80;;
77888;SDS011;67082;41.704;44.768;2023-05-10T13:51:31;7.47;;;3.10;;
77888;SDS011;67082;41.704;44.768;2023-05-10T13:53:59;7.40;;;2.67;;
77888;SDS011;67082;41.704;44.768;2023-05-10T13:56:27;8.73;;;2.90;;
77888;SDS011;67082;41.704;44.768;2023-05-10T13:58:56;7.40;;;3.08;;
77888;SDS011;67082;41.704;44.768;2023-05-10T14:01:24;8.00;;;3.33;;
77888;SDS011;67082;41.704;44.768;2023-05-10T14:03:52;7.32;;;3.28;;
77888;SDS011;67082;41.704;44.768;2023-05-10T14:06:22;11.35;;;3.10;;
77888;SDS011;67082;41.704;44.768;2023-05-10T14:08:50;13.70;;;3.70;;
77888;SDS011;67082;41.704;44.768;2023-05-10T14:11:18;7.53;;;2.72;;
77888;SDS011;67082;41.704;44.768;2023-05-10T14:13:46;9.55;;;3.08;;
77888;SDS011;67082;41.704;44.768;2023-05-10T14:16:15;7.88;;;3.10;;
77888;SDS011;67082;41.704;44.768;2023-05-10T14:18:44;9.52;;;3.53;;
77888;SDS011;67082;41.704;44.768;2023-05-10T14:21:12;7.20;;;3.42;;
77888;SDS011;67082;41.704;44.768;2023-05-10T14:23:40;11.23;;;3.13;;
77888;SDS011;67082;41.704;44.768;2023-05-10T14:26:08;6.35;;;3.30;;
77888;SDS011;67082;41.704;44.768;2023-05-10T14:28:37;9.60;;;3.00;;
77888;SDS011;67082;41.704;44.768;2023-05-10T14:31:05;6.65;;;2.75;;
77888;SDS011;67082;41.704;44.768;2023-05-10T14:33:33;9.48;;;2.75;;
77888;SDS011;67082;41.704;44.768;2023-05-10T14:36:03;7.10;;;2.95;;
77888;SDS011;67082;41.704;44.768;2023-05-10T14:38:31;10.95;;;3.63;;
77888;SDS011;67082;41.704;44.768;2023-05-10T14:41:00;6.13;;;3.30;;
77888;SDS011;67082;41.704;44.768;2023-05-10T14:43:29;8.38;;;3.63;;
77888;SDS011;67082;41.704;44.768;2023-05-10T14:45:57;8.88;;;3.35;;
77888;SDS011;67082;41.704;44.768;2023-05-10T14:48:26;8.20;;;3.00;;
77888;SDS011;67082;41.704;44.768;2023-05-10T14:50:54;5.72;;;3.33;;
77888;SDS011;67082;41.704;44.768;2023-05-10T14:53:23;7.90;;;3.38;;
77888;SDS011;67082;41.704;44.768;2023-05-10T14:55:51;8.57;;;2.95;;
77888;SDS011;67082;41.704;44.768;2023-05-10T14:58:20;11.95;;;4.15;;
77888;SDS011;67082;41.704;44.768;2023-05-10T15:00:48;9.90;;;3.25;;
77888;SDS011;67082;41.704;44.768;2023-05-10T15:03:17;8.25;;;4.32;;
77888;SDS011;67082;41.704;44.768;2023-05-10T15:05:46;8.98;;;2.92;;
77888;SDS011;67082;41.704;44.768;2023-05-10T15:08:14;15.20;;;3.10;;